sensor_id;sensor_type;location;lat;lon;timestamp;pressure;altitude;pressure_sealevel;temperature;humidity
34124;BME280;13153;52.316;21.166;2023-01-16T00:01:45;99254.44;;;10.12;58.56
34124;BME280;13153;52.316;21.166;2023-01-16T00:04:11;99254.44;;;10.12;58.34
34124;BME280;13153;52.316;21.166;2023-01-16T00:06:37;99263.19;;;10.11;58.14
34124;BME280;13153;52.316;21.166;2023-01-16T00:09:04;99263.19;;;10.11;58.61
34124;BME280;13153;52.316;21.166;2023-01-16T00:11:30;99250.91;;;10.11;58.61
34124;BME280;13153;52.316;21.166;2023-01-16T00:13:56;99241.22;;;10.04;58.58
34124;BME280;13153;52.316;21.166;2023-01-16T00:16:22;99247.41;;;10.11;58.63
34124;BME280;13153;52.316;21.166;2023-01-16T00:18:47;99249.16;;;10.10;58.53
34124;BME280;13153;52.316;21.166;2023-01-16T00:21:14;99246.50;;;10.07;58.91
34124;BME280;13153;52.316;21.166;2023-01-16T00:23:40;99234.19;;;10.03;58.33
34124;BME280;13153;52.316;21.166;2023-01-16T00:26:07;99256.03;;;9.99;58.67
34124;BME280;13153;52.316;21.166;2023-01-16T00:28:35;99256.97;;;10.03;59.07
34124;BME280;13153;52.316;21.166;2023-01-16T00:31:04;99252.53;;;9.99;58.88
34124;BME280;13153;52.316;21.166;2023-01-16T00:33:32;99258.69;;;10.02;58.78
34124;BME280;13153;52.316;21.166;2023-01-16T00:35:58;99264.88;;;10.06;58.68
34124;BME280;13153;52.316;21.166;2023-01-16T00:38:24;99260.47;;;10.03;58.41
34124;BME280;13153;52.316;21.166;2023-01-16T00:40:50;99269.19;;;9.99;58.44
34124;BME280;13153;52.316;21.166;2023-01-16T00:43:15;99273.56;;;9.99;58.47
34124;BME280;13153;52.316;21.166;2023-01-16T00:45:41;99270.84;;;9.92;58.83
34124;BME280;13153;52.316;21.166;2023-01-16T00:48:08;99276.06;;;9.89;58.52
34124;BME280;13153;52.316;21.166;2023-01-16T00:50:34;99267.31;;;9.87;58.95
34124;BME280;13153;52.316;21.166;2023-01-16T00:53:00;99269.88;;;9.84;58.80
34124;BME280;13153;52.316;21.166;2023-01-16T00:55:26;99269.88;;;9.84;58.59
34124;BME280;13153;52.316;21.166;2023-01-16T00:57:52;99272.50;;;9.84;58.40
34124;BME280;13153;52.316;21.166;2023-01-16T01:00:19;99265.50;;;9.83;59.08
34124;BME280;13153;52.316;21.166;2023-01-16T01:02:50;99269.00;;;9.81;58.85
34124;BME280;13153;52.316;21.166;2023-01-16T01:05:17;99268.09;;;9.77;58.98
34124;BME280;13153;52.316;21.166;2023-01-16T01:07:43;99269.84;;;9.77;58.92
34124;BME280;13153;52.316;21.166;2023-01-16T01:10:09;99273.28;;;9.73;58.39
34124;BME280;13153;52.316;21.166;2023-01-16T01:12:36;99279.44;;;9.75;59.14
34124;BME280;13153;52.316;21.166;2023-01-16T01:15:02;99269.75;;;9.69;58.94
34124;BME280;13153;52.316;21.166;2023-01-16T01:17:28;99269.75;;;9.69;59.27
34124;BME280;13153;52.316;21.166;2023-01-16T01:19:54;99266.19;;;9.66;59.15
34124;BME280;13153;52.316;21.166;2023-01-16T01:22:20;99268.81;;;9.64;59.53
34124;BME280;13153;52.316;21.166;2023-01-16T01:24:49;99271.38;;;9.59;59.26
34124;BME280;13153;52.316;21.166;2023-01-16T01:27:16;99267.88;;;9.59;59.51
34124;BME280;13153;52.316;21.166;2023-01-16T01:29:43;99272.09;;;9.48;60.08
34124;BME280;13153;52.316;21.166;2023-01-16T01:32:09;99273.84;;;9.49;59.90
34124;BME280;13153;52.316;21.166;2023-01-16T01:34:35;99271.28;;;9.52;59.53
34124;BME280;13153;52.316;21.166;2023-01-16T01:37:06;99266.88;;;9.49;59.80
34124;BME280;13153;52.316;21.166;2023-01-16T01:39:33;99267.75;;;9.50;59.92
34124;BME280;13153;52.316;21.166;2023-01-16T01:41:59;99265.97;;;9.49;60.21
34124;BME280;13153;52.316;21.166;2023-01-16T01:44:48;99268.59;;;9.47;60.26
34124;BME280;13153;52.316;21.166;2023-01-16T01:47:16;99267.72;;;9.47;60.39
34124;BME280;13153;52.316;21.166;2023-01-16T01:49:42;99272.00;;;9.42;60.61
34124;BME280;13153;52.316;21.166;2023-01-16T01:52:10;99274.63;;;9.42;60.46
34124;BME280;13153;52.316;21.166;2023-01-16T01:54:45;99260.69;;;9.46;60.33
34124;BME280;13153;52.316;21.166;2023-01-16T01:57:21;99256.28;;;9.43;60.11
34124;BME280;13153;52.316;21.166;2023-01-16T02:00:00;99256.25;;;9.42;60.45
34124;BME280;13153;52.316;21.166;2023-01-16T02:02:35;99254.50;;;9.41;60.38
34124;BME280;13153;52.316;21.166;2023-01-16T02:05:06;99256.22;;;9.39;60.34
34124;BME280;13153;52.316;21.166;2023-01-16T02:07:34;99254.50;;;9.41;60.62
34124;BME280;13153;52.316;21.166;2023-01-16T02:10:20;99256.19;;;9.36;60.55
34124;BME280;13153;52.316;21.166;2023-01-16T02:12:48;99251.78;;;9.35;60.27
34124;BME280;13153;52.316;21.166;2023-01-16T02:15:14;99249.13;;;9.32;60.22
34124;BME280;13153;52.316;21.166;2023-01-16T02:17:45;99246.47;;;9.28;60.26
34124;BME280;13153;52.316;21.166;2023-01-16T02:20:36;99247.28;;;9.21;61.16
34124;BME280;13153;52.316;21.166;2023-01-16T02:32:03;99234.03;;;9.14;61.11
34124;BME280;13153;52.316;21.166;2023-01-16T02:41:42;99229.50;;;9.02;61.85
34124;BME280;13153;52.316;21.166;2023-01-16T02:44:27;99232.09;;;9.01;60.89
34124;BME280;13153;52.316;21.166;2023-01-16T02:46:58;99235.59;;;9.00;61.64
34124;BME280;13153;52.316;21.166;2023-01-16T02:50:38;99231.16;;;8.96;61.08
34124;BME280;13153;52.316;21.166;2023-01-16T02:53:00;99231.94;;;8.90;61.03
34124;BME280;13153;52.316;21.166;2023-01-16T02:58:16;99230.88;;;8.77;61.88
34124;BME280;13153;52.316;21.166;2023-01-16T03:00:57;99232.66;;;8.78;62.06
34124;BME280;13153;52.316;21.166;2023-01-16T03:11:26;99232.28;;;8.52;62.65
34124;BME280;13153;52.316;21.166;2023-01-16T03:14:30;99242.84;;;8.58;62.36
34124;BME280;13153;52.316;21.166;2023-01-16T03:28:04;99234.91;;;8.52;62.24
34124;BME280;13153;52.316;21.166;2023-01-16T03:30:51;99228.69;;;8.47;62.21
34124;BME280;13153;52.316;21.166;2023-01-16T03:36:22;99239.97;;;8.42;62.24
34124;BME280;13153;52.316;21.166;2023-01-16T03:38:51;99240.88;;;8.44;62.58
34124;BME280;13153;52.316;21.166;2023-01-16T03:41:24;99247.81;;;8.42;62.64
34124;BME280;13153;52.316;21.166;2023-01-16T03:43:59;99239.97;;;8.42;62.43
34124;BME280;13153;52.316;21.166;2023-01-16T03:46:32;99237.31;;;8.40;61.71
34124;BME280;13153;52.316;21.166;2023-01-16T03:49:25;99241.69;;;8.41;61.95
34124;BME280;13153;52.316;21.166;2023-01-16T03:51:59;99240.72;;;8.36;62.25
34124;BME280;13153;52.316;21.166;2023-01-16T03:55:15;99240.72;;;8.36;61.81
34124;BME280;13153;52.316;21.166;2023-01-16T04:00:12;99232.75;;;8.30;62.58
34124;BME280;13153;52.316;21.166;2023-01-16T04:02:54;99237.91;;;8.27;62.45
34124;BME280;13153;52.316;21.166;2023-01-16T04:06:03;99230.88;;;8.24;62.38
34124;BME280;13153;52.316;21.166;2023-01-16T04:08:39;99235.28;;;8.25;62.72
34124;BME280;13153;52.316;21.166;2023-01-16T04:11:08;99235.28;;;8.25;62.59
34124;BME280;13153;52.316;21.166;2023-01-16T04:13:38;99235.31;;;8.28;62.54
34124;BME280;13153;52.316;21.166;2023-01-16T04:16:10;99235.22;;;8.22;62.98
34124;BME280;13153;52.316;21.166;2023-01-16T04:18:40;99238.66;;;8.18;63.02
34124;BME280;13153;52.316;21.166;2023-01-16T04:21:07;99234.28;;;8.19;62.51
34124;BME280;13153;52.316;21.166;2023-01-16T04:23:35;99236.88;;;8.17;62.02
34124;BME280;13153;52.316;21.166;2023-01-16T04:26:00;99227.31;;;8.19;61.93
34124;BME280;13153;52.316;21.166;2023-01-16T04:28:26;99229.03;;;8.17;62.16
34124;BME280;13153;52.316;21.166;2023-01-16T04:30:52;99235.09;;;8.15;62.00
34124;BME280;13153;52.316;21.166;2023-01-16T04:33:18;99234.09;;;8.07;62.30
34124;BME280;13153;52.316;21.166;2023-01-16T04:35:44;99233.28;;;8.11;61.99
34124;BME280;13153;52.316;21.166;2023-01-16T04:38:09;99232.41;;;8.12;61.88
34124;BME280;13153;52.316;21.166;2023-01-16T04:40:37;99240.28;;;8.12;61.69
34124;BME280;13153;52.316;21.166;2023-01-16T04:43:03;99239.41;;;8.13;61.88
34124;BME280;13153;52.316;21.166;2023-01-16T04:45:29;99236.78;;;8.11;62.07
34124;BME280;13153;52.316;21.166;2023-01-16T04:47:55;99245.50;;;8.12;62.21
34124;BME280;13153;52.316;21.166;2023-01-16T04:50:21;99237.63;;;8.10;61.56
34124;BME280;13153;52.316;21.166;2023-01-16T04:52:47;99248.06;;;8.06;61.80
34124;BME280;13153;52.316;21.166;2023-01-16T04:55:14;99241.94;;;8.05;61.78
34124;BME280;13153;52.316;21.166;2023-01-16T04:57:40;99254.94;;;8.01;62.53
34124;BME280;13153;52.316;21.166;2023-01-16T05:00:10;99255.00;;;8.04;62.28
34124;BME280;13153;52.316;21.166;2023-01-16T05:02:36;99258.50;;;8.04;61.96
34124;BME280;13153;52.316;21.166;2023-01-16T05:05:02;99256.66;;;7.99;62.09
34124;BME280;13153;52.316;21.166;2023-01-16T05:07:28;99254.06;;;8.00;62.41
34124;BME280;13153;52.316;21.166;2023-01-16T05:09:54;99253.19;;;8.00;62.42
34124;BME280;13153;52.316;21.166;2023-01-16T05:12:20;99253.06;;;7.93;62.34
34124;BME280;13153;52.316;21.166;2023-01-16T05:14:46;99243.47;;;7.94;61.74
34124;BME280;13153;52.316;21.166;2023-01-16T05:17:11;99244.34;;;7.94;62.77
34124;BME280;13153;52.316;21.166;2023-01-16T05:19:37;99242.59;;;7.93;62.44
34124;BME280;13153;52.316;21.166;2023-01-16T05:22:03;99244.28;;;7.91;62.43
34124;BME280;13153;52.316;21.166;2023-01-16T05:24:29;99239.84;;;7.87;62.60
34124;BME280;13153;52.316;21.166;2023-01-16T05:26:55;99238.09;;;7.86;62.40
34124;BME280;13153;52.316;21.166;2023-01-16T05:29:20;99247.72;;;7.87;62.13
34124;BME280;13153;52.316;21.166;2023-01-16T05:31:46;99236.41;;;7.90;62.19
34124;BME280;13153;52.316;21.166;2023-01-16T05:34:12;99229.44;;;7.90;61.55
34124;BME280;13153;52.316;21.166;2023-01-16T05:36:38;99232.97;;;7.92;61.91
34124;BME280;13153;52.316;21.166;2023-01-16T05:39:04;99238.19;;;7.92;61.90
34124;BME280;13153;52.316;21.166;2023-01-16T05:41:29;99233.81;;;7.91;61.95
34124;BME280;13153;52.316;21.166;2023-01-16T05:43:55;99228.59;;;7.91;61.85
34124;BME280;13153;52.316;21.166;2023-01-16T05:46:21;99230.25;;;7.88;62.26
34124;BME280;13153;52.316;21.166;2023-01-16T05:48:47;99232.03;;;7.89;61.54
34124;BME280;13153;52.316;21.166;2023-01-16T05:51:12;99229.34;;;7.86;62.17
34124;BME280;13153;52.316;21.166;2023-01-16T05:53:38;99232.81;;;7.85;62.17
34124;BME280;13153;52.316;21.166;2023-01-16T05:56:10;99228.47;;;7.85;61.70
34124;BME280;13153;52.316;21.166;2023-01-16T05:58:36;99225.78;;;7.82;61.62
34124;BME280;13153;52.316;21.166;2023-01-16T06:01:03;99214.34;;;7.77;61.62
34124;BME280;13153;52.316;21.166;2023-01-16T06:03:29;99215.16;;;7.75;61.84
34124;BME280;13153;52.316;21.166;2023-01-16T06:05:55;99219.50;;;7.73;61.96
34124;BME280;13153;52.316;21.166;2023-01-16T06:08:21;99218.56;;;7.69;61.10
34124;BME280;13153;52.316;21.166;2023-01-16T06:10:46;99216.75;;;7.67;61.75
34124;BME280;13153;52.316;21.166;2023-01-16T06:13:13;99218.56;;;7.69;61.42
34124;BME280;13153;52.316;21.166;2023-01-16T06:15:39;99205.47;;;7.69;61.67
34124;BME280;13153;52.316;21.166;2023-01-16T06:18:05;99212.44;;;7.69;61.45
34124;BME280;13153;52.316;21.166;2023-01-16T06:20:31;99214.25;;;7.73;61.33
34124;BME280;13153;52.316;21.166;2023-01-16T06:22:57;99216.88;;;7.73;61.06
34124;BME280;13153;52.316;21.166;2023-01-16T06:25:23;99217.72;;;7.72;61.04
34124;BME280;13153;52.316;21.166;2023-01-16T06:27:50;99216.00;;;7.72;61.26
34124;BME280;13153;52.316;21.166;2023-01-16T06:30:17;99221.16;;;7.69;61.30
34124;BME280;13153;52.316;21.166;2023-01-16T06:32:47;99215.09;;;7.70;61.23
34124;BME280;13153;52.316;21.166;2023-01-16T06:35:14;99218.50;;;7.66;61.04
34124;BME280;13153;52.316;21.166;2023-01-16T06:37:40;99212.38;;;7.66;61.59
34124;BME280;13153;52.316;21.166;2023-01-16T06:40:06;99220.28;;;7.69;61.79
34124;BME280;13153;52.316;21.166;2023-01-16T06:42:32;99223.69;;;7.65;61.39
34124;BME280;13153;52.316;21.166;2023-01-16T06:44:58;99224.59;;;7.65;61.35
34124;BME280;13153;52.316;21.166;2023-01-16T06:47:24;99218.50;;;7.66;61.26
34124;BME280;13153;52.316;21.166;2023-01-16T06:49:50;99228.13;;;7.67;61.31
34124;BME280;13153;52.316;21.166;2023-01-16T06:52:15;99226.38;;;7.68;61.63
34124;BME280;13153;52.316;21.166;2023-01-16T06:54:41;99225.53;;;7.69;60.55
34124;BME280;13153;52.316;21.166;2023-01-16T06:57:07;99214.16;;;7.68;60.98
34124;BME280;13153;52.316;21.166;2023-01-16T06:59:33;99216.81;;;7.70;60.61
34124;BME280;13153;52.316;21.166;2023-01-16T07:01:58;99220.31;;;7.70;61.13
34124;BME280;13153;52.316;21.166;2023-01-16T07:04:24;99220.38;;;7.73;61.38
34124;BME280;13153;52.316;21.166;2023-01-16T07:06:50;99223.94;;;7.77;60.71
34124;BME280;13153;52.316;21.166;2023-01-16T07:09:16;99218.66;;;7.75;61.20
34124;BME280;13153;52.316;21.166;2023-01-16T07:11:42;99218.78;;;7.81;60.34
34124;BME280;13153;52.316;21.166;2023-01-16T07:14:08;99219.78;;;7.88;60.75
34124;BME280;13153;52.316;21.166;2023-01-16T07:16:53;99213.88;;;7.98;60.44
34124;BME280;13153;52.316;21.166;2023-01-16T07:19:37;99213.31;;;8.17;60.55
34124;BME280;13153;52.316;21.166;2023-01-16T07:22:22;99222.53;;;8.45;60.38
34124;BME280;13153;52.316;21.166;2023-01-16T07:25:02;99226.38;;;8.66;60.13
34124;BME280;13153;52.316;21.166;2023-01-16T07:27:30;99213.41;;;8.78;58.62
34124;BME280;13153;52.316;21.166;2023-01-16T07:29:56;99214.50;;;8.92;58.79
34124;BME280;13153;52.316;21.166;2023-01-16T07:32:23;99212.72;;;8.91;57.35
34124;BME280;13153;52.316;21.166;2023-01-16T07:34:48;99209.13;;;8.83;57.50
34124;BME280;13153;52.316;21.166;2023-01-16T07:37:14;99211.72;;;8.81;57.26
34124;BME280;13153;52.316;21.166;2023-01-16T07:39:40;99216.06;;;8.81;57.61
34124;BME280;13153;52.316;21.166;2023-01-16T07:42:07;99209.06;;;8.80;57.24
34124;BME280;13153;52.316;21.166;2023-01-16T07:44:33;99211.63;;;8.75;57.49
34124;BME280;13153;52.316;21.166;2023-01-16T07:47:00;99207.22;;;8.73;57.99
34124;BME280;13153;52.316;21.166;2023-01-16T07:49:25;99210.75;;;8.75;57.30
34124;BME280;13153;52.316;21.166;2023-01-16T07:51:51;99205.66;;;8.85;57.11
34124;BME280;13153;52.316;21.166;2023-01-16T07:54:17;99204.91;;;8.94;57.19
34124;BME280;13153;52.316;21.166;2023-01-16T07:56:43;99212.91;;;9.03;57.30
34124;BME280;13153;52.316;21.166;2023-01-16T07:59:09;99209.47;;;9.07;56.93
34124;BME280;13153;52.316;21.166;2023-01-16T08:01:35;99207.75;;;9.11;56.65
34124;BME280;13153;52.316;21.166;2023-01-16T08:04:00;99202.41;;;9.03;56.11
34124;BME280;13153;52.316;21.166;2023-01-16T08:06:26;99200.66;;;9.02;56.26
34124;BME280;13153;52.316;21.166;2023-01-16T08:08:52;99204.31;;;9.13;56.49
34124;BME280;13153;52.316;21.166;2023-01-16T08:11:18;99202.69;;;9.27;56.87
34124;BME280;13153;52.316;21.166;2023-01-16T08:14:06;99198.53;;;9.43;56.15
34124;BME280;13153;52.316;21.166;2023-01-16T08:16:33;99212.59;;;9.48;55.44
34124;BME280;13153;52.316;21.166;2023-01-16T08:18:59;99201.16;;;9.45;55.57
34124;BME280;13153;52.316;21.166;2023-01-16T08:21:25;99197.72;;;9.49;55.55
34124;BME280;13153;52.316;21.166;2023-01-16T08:23:51;99196.00;;;9.51;54.96
34124;BME280;13153;52.316;21.166;2023-01-16T08:26:17;99198.59;;;9.49;55.48
34124;BME280;13153;52.316;21.166;2023-01-16T08:28:43;99200.41;;;9.53;55.31
34124;BME280;13153;52.316;21.166;2023-01-16T08:31:12;99201.34;;;9.58;55.50
34124;BME280;13153;52.316;21.166;2023-01-16T08:33:41;99199.59;;;9.59;54.92
34124;BME280;13153;52.316;21.166;2023-01-16T08:36:10;99193.53;;;9.65;55.43
34124;BME280;13153;52.316;21.166;2023-01-16T08:38:37;99196.16;;;9.66;55.03
34124;BME280;13153;52.316;21.166;2023-01-16T08:41:03;99192.63;;;9.61;54.16
34124;BME280;13153;52.316;21.166;2023-01-16T08:43:29;99193.47;;;9.58;54.99
34124;BME280;13153;52.316;21.166;2023-01-16T08:46:22;99195.09;;;9.50;54.97
34124;BME280;13153;52.316;21.166;2023-01-16T08:49:13;99194.28;;;9.54;54.52
34124;BME280;13153;52.316;21.166;2023-01-16T08:51:59;99185.56;;;9.57;54.57
34124;BME280;13153;52.316;21.166;2023-01-16T08:54:25;99187.41;;;9.64;54.83
34124;BME280;13153;52.316;21.166;2023-01-16T08:56:51;99183.88;;;9.64;54.95
34124;BME280;13153;52.316;21.166;2023-01-16T08:59:17;99188.28;;;9.65;54.65
34124;BME280;13153;52.316;21.166;2023-01-16T09:01:43;99182.22;;;9.70;55.26
34124;BME280;13153;52.316;21.166;2023-01-16T09:04:09;99175.19;;;9.68;54.37
34124;BME280;13153;52.316;21.166;2023-01-16T09:06:35;99171.78;;;9.76;55.09
34124;BME280;13153;52.316;21.166;2023-01-16T09:09:05;99166.56;;;9.81;54.83
34124;BME280;13153;52.316;21.166;2023-01-16T09:11:35;99170.06;;;9.83;54.15
34124;BME280;13153;52.316;21.166;2023-01-16T09:14:19;99170.91;;;9.79;54.86
34124;BME280;13153;52.316;21.166;2023-01-16T09:16:45;99164.84;;;9.89;54.49
34124;BME280;13153;52.316;21.166;2023-01-16T09:19:11;99158.81;;;9.98;54.22
34124;BME280;13153;52.316;21.166;2023-01-16T09:21:37;99157.88;;;9.91;53.67
34124;BME280;13153;52.316;21.166;2023-01-16T09:24:03;99159.69;;;9.98;53.77
34124;BME280;13153;52.316;21.166;2023-01-16T09:26:29;99151.78;;;9.97;53.72
34124;BME280;13153;52.316;21.166;2023-01-16T09:28:56;99150.91;;;9.94;53.52
34124;BME280;13153;52.316;21.166;2023-01-16T09:31:22;99149.19;;;9.98;53.93
34124;BME280;13153;52.316;21.166;2023-01-16T09:33:48;99140.44;;;10.01;53.72
34124;BME280;13153;52.316;21.166;2023-01-16T09:36:15;99147.44;;;10.00;53.83
34124;BME280;13153;52.316;21.166;2023-01-16T09:38:41;99146.59;;;10.03;53.53
34124;BME280;13153;52.316;21.166;2023-01-16T09:41:15;99141.34;;;10.03;53.40
34124;BME280;13153;52.316;21.166;2023-01-16T09:44:15;99139.44;;;9.88;53.77
34124;BME280;13153;52.316;21.166;2023-01-16T09:46:48;99142.97;;;9.90;53.94
34124;BME280;13153;52.316;21.166;2023-01-16T09:49:22;99142.03;;;9.80;53.99
34124;BME280;13153;52.316;21.166;2023-01-16T09:52:16;99132.38;;;9.78;54.09
34124;BME280;13153;52.316;21.166;2023-01-16T09:55:16;99137.66;;;9.79;54.43
34124;BME280;13153;52.316;21.166;2023-01-16T09:58:04;99143.78;;;9.80;54.80
34124;BME280;13153;52.316;21.166;2023-01-16T10:00:50;99136.75;;;9.77;54.35
34124;BME280;13153;52.316;21.166;2023-01-16T10:03:17;99126.28;;;9.80;54.11
34124;BME280;13153;52.316;21.166;2023-01-16T10:06:09;99133.28;;;9.83;53.81
34124;BME280;13153;52.316;21.166;2023-01-16T10:09:09;99131.47;;;9.74;54.46
34124;BME280;13153;52.316;21.166;2023-01-16T10:11:53;99120.91;;;9.68;54.68
34124;BME280;13153;52.316;21.166;2023-01-16T10:14:55;99125.31;;;9.71;55.21
34124;BME280;13153;52.316;21.166;2023-01-16T10:17:43;99111.19;;;9.58;54.61
34124;BME280;13153;52.316;21.166;2023-01-16T10:23:36;99112.78;;;9.44;55.81
34124;BME280;13153;52.316;21.166;2023-01-16T10:26:22;99111.84;;;9.39;55.84
34124;BME280;13153;52.316;21.166;2023-01-16T10:28:57;99107.47;;;9.38;55.60
34124;BME280;13153;52.316;21.166;2023-01-16T10:31:33;99104.06;;;9.46;56.02
34124;BME280;13153;52.316;21.166;2023-01-16T10:34:23;99100.50;;;9.43;55.68
34124;BME280;13153;52.316;21.166;2023-01-16T10:36:54;99091.81;;;9.47;55.66
34124;BME280;13153;52.316;21.166;2023-01-16T10:39:33;99092.66;;;9.46;55.55
34124;BME280;13153;52.316;21.166;2023-01-16T10:42:32;99073.38;;;9.42;55.98
34124;BME280;13153;52.316;21.166;2023-01-16T10:45:30;99075.22;;;9.51;55.39
34124;BME280;13153;52.316;21.166;2023-01-16T10:48:16;99068.31;;;9.60;55.21
34124;BME280;13153;52.316;21.166;2023-01-16T10:51:02;99069.22;;;9.63;55.58
34124;BME280;13153;52.316;21.166;2023-01-16T10:53:30;99062.16;;;9.58;55.33
34124;BME280;13153;52.316;21.166;2023-01-16T10:55:58;99053.41;;;9.56;55.21
34124;BME280;13153;52.316;21.166;2023-01-16T10:58:36;99047.22;;;9.50;55.91
34124;BME280;13153;52.316;21.166;2023-01-16T11:01:19;99051.56;;;9.49;55.85
34124;BME280;13153;52.316;21.166;2023-01-16T11:03:59;99035.72;;;9.37;55.76
34124;BME280;13153;52.316;21.166;2023-01-16T11:06:28;99028.69;;;9.35;56.63
34124;BME280;13153;52.316;21.166;2023-01-16T11:11:39;99029.59;;;9.38;56.00
34124;BME280;13153;52.316;21.166;2023-01-16T11:14:35;99017.28;;;9.33;56.52
34124;BME280;13153;52.316;21.166;2023-01-16T11:17:36;99019.00;;;9.29;57.29
34124;BME280;13153;52.316;21.166;2023-01-16T11:20:33;99018.09;;;9.21;57.09
34124;BME280;13153;52.316;21.166;2023-01-16T11:23:19;99017.13;;;9.14;57.52
34124;BME280;13153;52.316;21.166;2023-01-16T11:25:49;99021.47;;;9.11;57.46
34124;BME280;13153;52.316;21.166;2023-01-16T11:28:25;99014.53;;;9.16;57.01
34124;BME280;13153;52.316;21.166;2023-01-16T11:30:57;99016.00;;;8.91;58.02
34124;BME280;13153;52.316;21.166;2023-01-16T11:33:28;99008.19;;;8.96;57.95
34124;BME280;13153;52.316;21.166;2023-01-16T11:36:01;98994.25;;;9.01;57.37
34124;BME280;13153;52.316;21.166;2023-01-16T11:38:34;98996.94;;;9.07;57.20
34124;BME280;13153;52.316;21.166;2023-01-16T11:41:02;98989.06;;;9.06;57.43
34124;BME280;13153;52.316;21.166;2023-01-16T11:43:30;98987.28;;;9.02;57.32
34124;BME280;13153;52.316;21.166;2023-01-16T11:46:37;98983.88;;;9.10;57.33
34124;BME280;13153;52.316;21.166;2023-01-16T11:49:44;98980.28;;;9.02;57.03
34124;BME280;13153;52.316;21.166;2023-01-16T11:52:15;98970.78;;;9.13;57.37
34124;BME280;13153;52.316;21.166;2023-01-16T11:55:04;98968.97;;;9.08;57.08
34124;BME280;13153;52.316;21.166;2023-01-16T11:58:09;98962.00;;;9.10;58.10
34124;BME280;13153;52.316;21.166;2023-01-16T12:04:36;98953.31;;;9.15;57.64
34124;BME280;13153;52.316;21.166;2023-01-16T12:07:19;98960.34;;;9.21;57.92
34124;BME280;13153;52.316;21.166;2023-01-16T12:10:14;98940.22;;;9.24;57.69
34124;BME280;13153;52.316;21.166;2023-01-16T12:13:05;98942.00;;;9.24;57.76
34124;BME280;13153;52.316;21.166;2023-01-16T12:31:25;98921.94;;;9.34;57.31
34124;BME280;13153;52.316;21.166;2023-01-16T12:34:45;98930.66;;;9.31;57.70
34124;BME280;13153;52.316;21.166;2023-01-16T12:47:00;98919.25;;;9.21;57.57
34124;BME280;13153;52.316;21.166;2023-01-16T12:50:07;98912.09;;;9.05;58.32
34124;BME280;13153;52.316;21.166;2023-01-16T12:55:43;98923.53;;;9.12;58.42
34124;BME280;13153;52.316;21.166;2023-01-16T12:58:22;98921.78;;;9.11;58.32
34124;BME280;13153;52.316;21.166;2023-01-16T13:01:18;98922.59;;;9.05;58.58
34124;BME280;13153;52.316;21.166;2023-01-16T13:04:32;98904.13;;;8.93;59.31
34124;BME280;13153;52.316;21.166;2023-01-16T13:07:00;98917.94;;;8.75;59.53
34124;BME280;13153;52.316;21.166;2023-01-16T13:12:57;98896.00;;;8.67;59.97
34124;BME280;13153;52.316;21.166;2023-01-16T13:15:47;98903.88;;;8.67;58.90
34124;BME280;13153;52.316;21.166;2023-01-16T13:18:49;98892.38;;;8.51;59.40
34124;BME280;13153;52.316;21.166;2023-01-16T13:21:27;98878.41;;;8.52;59.88
34124;BME280;13153;52.316;21.166;2023-01-16T13:24:03;98873.03;;;8.40;59.83
34124;BME280;13153;52.316;21.166;2023-01-16T13:26:32;98868.66;;;8.39;60.49
34124;BME280;13153;52.316;21.166;2023-01-16T13:29:54;98861.59;;;8.34;60.17
34124;BME280;13153;52.316;21.166;2023-01-16T13:35:02;98846.63;;;8.25;60.99
34124;BME280;13153;52.316;21.166;2023-01-16T13:41:00;98842.41;;;8.35;60.63
34124;BME280;13153;52.316;21.166;2023-01-16T13:44:01;98839.69;;;8.28;61.36
34124;BME280;13153;52.316;21.166;2023-01-16T13:46:44;98855.53;;;8.38;62.13
34124;BME280;13153;52.316;21.166;2023-01-16T13:49:23;98853.78;;;8.37;61.58
34124;BME280;13153;52.316;21.166;2023-01-16T13:51:52;98836.34;;;8.40;62.16
34124;BME280;13153;52.316;21.166;2023-01-16T13:54:34;98836.34;;;8.40;61.05
34124;BME280;13153;52.316;21.166;2023-01-16T13:57:19;98838.19;;;8.49;61.49
34124;BME280;13153;52.316;21.166;2023-01-16T14:00:02;98846.94;;;8.52;61.05
34124;BME280;13153;52.316;21.166;2023-01-16T14:02:42;98834.69;;;8.48;62.32
34124;BME280;13153;52.316;21.166;2023-01-16T14:05:45;98827.63;;;8.41;61.99
34124;BME280;13153;52.316;21.166;2023-01-16T14:08:25;98834.78;;;8.59;62.03
34124;BME280;13153;52.316;21.166;2023-01-16T14:11:27;98820.88;;;8.69;61.98
34124;BME280;13153;52.316;21.166;2023-01-16T14:14:46;98813.00;;;8.68;61.58
34124;BME280;13153;52.316;21.166;2023-01-16T14:23:23;98811.28;;;8.73;61.67
34124;BME280;13153;52.316;21.166;2023-01-16T14:26:17;98796.41;;;8.66;62.35
34124;BME280;13153;52.316;21.166;2023-01-16T14:28:48;98797.28;;;8.71;62.63
34124;BME280;13153;52.316;21.166;2023-01-16T14:31:42;98802.44;;;8.57;62.49
34124;BME280;13153;52.316;21.166;2023-01-16T14:34:20;98794.56;;;8.57;62.11
34124;BME280;13153;52.316;21.166;2023-01-16T14:36:52;98791.94;;;8.55;62.45
34124;BME280;13153;52.316;21.166;2023-01-16T14:39:32;98789.19;;;8.43;62.94
34124;BME280;13153;52.316;21.166;2023-01-16T14:42:06;98791.84;;;8.46;62.73
34124;BME280;13153;52.316;21.166;2023-01-16T14:53:58;98780.47;;;8.44;62.94
34124;BME280;13153;52.316;21.166;2023-01-16T14:56:48;98774.31;;;8.38;62.87
34124;BME280;13153;52.316;21.166;2023-01-16T14:59:30;98772.56;;;8.40;63.51
34124;BME280;13153;52.316;21.166;2023-01-16T15:02:12;98760.38;;;8.43;63.11
34124;BME280;13153;52.316;21.166;2023-01-16T15:07:43;98756.00;;;8.44;62.54
34124;BME280;13153;52.316;21.166;2023-01-16T15:10:40;98762.97;;;8.42;63.02
34124;BME280;13153;52.316;21.166;2023-01-16T15:16:03;98750.69;;;8.33;62.80
34124;BME280;13153;52.316;21.166;2023-01-16T15:18:32;98752.41;;;8.33;62.98
34124;BME280;13153;52.316;21.166;2023-01-16T15:21:20;98748.00;;;8.32;62.61
34124;BME280;13153;52.316;21.166;2023-01-16T15:24:13;98748.84;;;8.29;62.65
34124;BME280;13153;52.316;21.166;2023-01-16T15:27:11;98745.38;;;8.32;62.58
34124;BME280;13153;52.316;21.166;2023-01-16T15:30:07;98754.16;;;8.34;62.61